createdAt,value
2022-09-07T00:02:52.997Z,15.99
2022-09-07T00:05:51.940Z,16.09
2022-09-07T00:08:49.081Z,15.94
2022-09-07T00:11:46.542Z,15.96
2022-09-07T00:14:43.451Z,15.97
2022-09-07T00:17:40.361Z,15.89
2022-09-07T00:20:37.196Z,16.05
2022-09-07T00:23:36.531Z,16.08
2022-09-07T00:26:33.466Z,15.89
2022-09-07T00:29:30.448Z,16.02
2022-09-07T00:32:27.294Z,16.03
2022-09-07T00:35:24.146Z,16.11
2022-09-07T00:38:21.066Z,16.08
2022-09-07T00:41:19.914Z,15.91
2022-09-07T00:45:01.704Z,15.78
2022-09-07T00:48:04.125Z,15.73
2022-09-07T00:51:06.956Z,15.81
2022-09-07T00:54:10.989Z,15.99
2022-09-07T00:57:08.568Z,15.92
2022-09-07T01:00:06.531Z,15.87
2022-09-07T01:03:05.422Z,15.93
2022-09-07T01:06:23.786Z,15.94
2022-09-07T01:09:23.962Z,15.98
2022-09-07T01:12:20.773Z,15.75
2022-09-07T01:15:18.132Z,15.73
2022-09-07T01:18:45.470Z,15.71
2022-09-07T01:21:51.077Z,15.64
2022-09-07T01:25:12.386Z,15.61
2022-09-07T01:28:29.099Z,15.65
2022-09-07T01:31:51.156Z,15.64
2022-09-07T01:34:53.780Z,15.65
2022-09-07T01:38:17.437Z,15.75
2022-09-07T01:41:43.395Z,15.63
2022-09-07T01:44:52.805Z,15.48
2022-09-07T01:47:55.663Z,15.64
2022-09-07T01:51:01.466Z,15.38
2022-09-07T01:54:13.062Z,15.39
2022-09-07T01:57:17.654Z,15.35
2022-09-07T02:00:20.180Z,15.66
2022-09-07T02:03:36.171Z,15.45
2022-09-07T02:07:28.869Z,15.27
2022-09-07T02:10:35.247Z,15.41
2022-09-07T02:13:59.304Z,15.43
2022-09-07T02:17:13.519Z,15.64
2022-09-07T02:20:21.964Z,15.16
2022-09-07T02:23:24.646Z,15.19
2022-09-07T02:26:25.560Z,14.94
2022-09-07T02:29:22.592Z,15.14
2022-09-07T02:32:19.716Z,15.05
2022-09-07T02:35:16.844Z,15.02
2022-09-07T02:38:13.724Z,14.95
2022-09-07T02:41:36.299Z,15.11
2022-09-07T02:44:37.600Z,15.10
2022-09-07T02:48:11.328Z,15.06
2022-09-07T02:51:43.191Z,15.04
2022-09-07T02:55:28.003Z,14.94
2022-09-07T02:58:50.032Z,15.27
2022-09-07T03:02:04.837Z,14.95
2022-09-07T03:05:33.501Z,15.01
2022-09-07T03:08:38.113Z,15.04
2022-09-07T03:11:37.694Z,15.16
2022-09-07T03:14:36.152Z,15.07
2022-09-07T03:17:33.042Z,15.20
2022-09-07T03:20:29.893Z,15.06
2022-09-07T03:23:26.745Z,15.18
2022-09-07T03:26:25.199Z,15.28
2022-09-07T03:29:22.043Z,15.24
2022-09-07T03:32:18.921Z,15.17
2022-09-07T03:35:16.688Z,15.08
2022-09-07T03:38:13.574Z,15.18
2022-09-07T03:41:10.557Z,15.15
2022-09-07T03:44:08.471Z,15.14
2022-09-07T03:47:06.036Z,15.17
2022-09-07T03:50:04.666Z,15.07
2022-09-07T03:53:01.526Z,15.02
2022-09-07T03:56:20.696Z,15.03
2022-09-07T03:59:17.522Z,15.15
2022-09-07T04:02:14.498Z,15.10
2022-09-07T04:05:11.563Z,15.08
2022-09-07T04:08:08.414Z,15.07
2022-09-07T04:11:07.917Z,15.04
2022-09-07T04:14:04.837Z,15.08
2022-09-07T04:17:01.861Z,15.07
2022-09-07T04:19:58.763Z,15.27
2022-09-07T04:22:55.617Z,15.23
2022-09-07T04:25:52.792Z,15.18
2022-09-07T04:28:51.445Z,15.13
2022-09-07T04:31:48.294Z,14.96
2022-09-07T04:34:45.169Z,15.19
2022-09-07T04:37:42.061Z,15.13
2022-09-07T04:40:39.060Z,14.86
2022-09-07T04:43:37.864Z,14.89
2022-09-07T04:46:37.445Z,14.92
2022-09-07T04:49:34.330Z,15.18
2022-09-07T04:52:31.149Z,15.09
2022-09-07T04:55:28.382Z,14.84
2022-09-07T04:58:25.284Z,14.87
2022-09-07T05:01:24.986Z,14.75
2022-09-07T05:04:21.881Z,14.61
2022-09-07T05:07:18.767Z,14.78
2022-09-07T05:10:15.671Z,14.88
2022-09-07T05:13:12.504Z,14.57
2022-09-07T05:16:21.534Z,14.71
2022-09-07T05:19:18.408Z,14.64
2022-09-07T05:22:15.348Z,14.71
2022-09-07T05:25:12.329Z,14.74
2022-09-07T05:28:09.365Z,14.90
2022-09-07T05:31:20.239Z,15.04
2022-09-07T05:34:33.232Z,15.28
2022-09-07T05:37:30.227Z,15.23
2022-09-07T05:40:31.272Z,15.36
2022-09-07T05:43:28.104Z,15.37
2022-09-07T05:46:25.283Z,14.88
2022-09-07T05:49:22.153Z,15.07
2022-09-07T05:52:18.970Z,15.28
2022-09-07T05:55:29.284Z,15.11
2022-09-07T05:58:30.010Z,15.28
2022-09-07T06:01:26.968Z,15.35
2022-09-07T06:04:23.799Z,15.48
2022-09-07T06:07:22.434Z,15.55
2022-09-07T06:13:37.037Z,15.74
2022-09-07T06:16:35.054Z,15.88
2022-09-07T06:19:31.976Z,15.84
2022-09-07T06:22:30.908Z,15.85
2022-09-07T06:25:28.212Z,15.86
2022-09-07T06:28:34.661Z,16.04
2022-09-07T06:31:31.967Z,15.84
2022-09-07T06:34:28.891Z,15.82
2022-09-07T06:37:25.697Z,15.88
2022-09-07T06:40:22.867Z,16.00
2022-09-07T06:43:19.675Z,16.06
2022-09-07T06:49:35.026Z,16.10
2022-09-07T06:55:48.709Z,16.09
2022-09-07T06:58:46.670Z,16.09
2022-09-07T07:01:43.569Z,16.21
2022-09-07T07:04:41.346Z,16.30
2022-09-07T07:07:38.378Z,16.58
2022-09-07T07:10:39.211Z,16.67
2022-09-07T07:13:37.122Z,16.82
2022-09-07T07:16:35.936Z,16.95
2022-09-07T07:19:32.790Z,17.11
2022-09-07T07:22:46.031Z,17.19
2022-09-07T07:25:43.697Z,17.44
2022-09-07T07:29:01.571Z,17.23
2022-09-07T07:32:00.709Z,17.50
2022-09-07T07:34:57.723Z,18.04
2022-09-07T07:44:29.696Z,18.55
2022-09-07T07:47:26.967Z,18.91
2022-09-07T07:50:32.091Z,18.84
2022-09-07T07:53:42.448Z,19.31
2022-09-07T07:56:39.645Z,19.66
2022-09-07T07:59:36.607Z,20.03
2022-09-07T08:02:34.201Z,19.53
2022-09-07T08:05:31.072Z,20.40
2022-09-07T08:08:28.699Z,20.58
2022-09-07T08:11:26.335Z,20.43
2022-09-07T08:14:23.152Z,21.07
2022-09-07T08:17:19.972Z,20.88
2022-09-07T08:20:16.981Z,21.40
2022-09-07T08:23:14.703Z,21.37
2022-09-07T08:26:11.597Z,20.41
2022-09-07T08:29:08.399Z,21.25
2022-09-07T08:32:06.533Z,21.59
2022-09-07T08:35:03.621Z,21.02
2022-09-07T08:38:00.486Z,21.90
2022-09-07T08:40:57.668Z,22.02
2022-09-07T08:44:02.583Z,21.75
2022-09-07T08:47:36.254Z,22.62
2022-09-07T08:51:00.772Z,22.57
2022-09-07T08:53:58.626Z,22.35
2022-09-07T09:00:19.056Z,22.32
2022-09-07T09:03:30.142Z,22.63
2022-09-07T09:06:53.585Z,22.76
2022-09-07T09:10:24.357Z,22.42
2022-09-07T09:13:43.998Z,22.65
2022-09-07T09:16:51.382Z,22.72
2022-09-07T09:20:19.512Z,23.36
2022-09-07T09:23:19.252Z,23.10
2022-09-07T09:26:31.250Z,23.22
2022-09-07T09:29:28.103Z,23.44
2022-09-07T09:32:43.861Z,23.39
2022-09-07T09:35:41.765Z,23.66
2022-09-07T09:38:40.715Z,23.64
2022-09-07T09:41:38.842Z,23.66
2022-09-07T09:44:38.170Z,23.87
2022-09-07T09:47:38.241Z,23.45
2022-09-07T09:54:07.360Z,23.91
2022-09-07T09:57:05.688Z,24.29
2022-09-07T10:00:08.435Z,23.92
2022-09-07T10:06:37.411Z,22.85
2022-09-07T10:09:42.403Z,23.54
2022-09-07T10:12:40.797Z,23.89
2022-09-07T10:15:40.909Z,24.00
2022-09-07T10:18:53.754Z,24.29
2022-09-07T10:21:58.032Z,24.36
2022-09-07T10:24:54.944Z,24.90
2022-09-07T10:28:23.961Z,24.96
2022-09-07T10:31:30.141Z,24.92
2022-09-07T10:34:44.773Z,25.34
2022-09-07T10:38:16.183Z,25.18
2022-09-07T10:41:17.094Z,25.05
2022-09-07T10:44:48.208Z,25.03
2022-09-07T10:48:45.199Z,25.32
2022-09-07T10:52:09.135Z,24.80
2022-09-07T10:55:23.751Z,25.43
2022-09-07T11:02:01.452Z,25.50
2022-09-07T11:05:27.686Z,25.88
2022-09-07T11:12:28.066Z,25.49
2022-09-07T11:15:39.891Z,25.04
2022-09-07T11:18:52.968Z,25.65
2022-09-07T11:22:04.706Z,26.48
2022-09-07T11:28:41.673Z,26.64
2022-09-07T11:32:08.056Z,26.46
2022-09-07T11:35:35.221Z,26.64
2022-09-07T11:38:46.840Z,26.69
2022-09-07T11:41:56.294Z,26.70
2022-09-07T11:45:27.709Z,26.11
2022-09-07T11:48:54.670Z,26.70
2022-09-07T11:52:08.834Z,26.82
2022-09-07T11:55:19.603Z,26.39
2022-09-07T11:59:08.680Z,26.62
2022-09-07T12:02:36.685Z,26.12
2022-09-07T12:06:01.935Z,25.49
2022-09-07T12:09:23.045Z,26.13
2022-09-07T12:12:57.753Z,26.98
2022-09-07T12:16:02.977Z,25.76
2022-09-07T12:19:24.610Z,25.31
2022-09-07T12:22:22.684Z,25.08
2022-09-07T12:25:19.608Z,25.53
2022-09-07T12:28:37.760Z,24.62
2022-09-07T12:31:59.393Z,24.65
2022-09-07T12:35:03.950Z,24.79
2022-09-07T12:38:18.582Z,25.22
2022-09-07T12:41:39.853Z,25.17
2022-09-07T12:44:37.955Z,25.82
2022-09-07T12:47:34.881Z,25.12
2022-09-07T12:50:58.983Z,24.78
2022-09-07T12:54:08.748Z,25.39
2022-09-07T12:57:49.225Z,26.36
2022-09-07T13:01:05.589Z,26.67
2022-09-07T13:04:28.166Z,26.19
2022-09-07T13:08:07.186Z,25.93
2022-09-07T13:11:23.911Z,26.31
2022-09-07T13:14:26.324Z,26.95
2022-09-07T13:17:33.022Z,26.31
2022-09-07T13:20:34.856Z,26.09
2022-09-07T13:23:43.284Z,25.72
2022-09-07T13:27:03.245Z,26.51
2022-09-07T13:30:16.499Z,27.34
2022-09-07T13:33:25.335Z,27.24
2022-09-07T13:36:31.970Z,27.50
2022-09-07T13:39:32.455Z,27.49
2022-09-07T13:42:33.973Z,26.12
2022-09-07T13:45:53.745Z,26.69
2022-09-07T13:48:57.868Z,27.14
2022-09-07T13:52:43.701Z,25.89
2022-09-07T13:56:27.637Z,26.19
2022-09-07T13:59:28.885Z,26.21
2022-09-07T14:02:53.146Z,25.95
2022-09-07T14:06:20.135Z,26.03
2022-09-07T14:09:21.095Z,26.86
2022-09-07T14:12:21.649Z,26.91
2022-09-07T14:15:31.919Z,26.69
2022-09-07T14:18:32.881Z,26.02
2022-09-07T14:21:29.745Z,25.92
2022-09-07T14:24:40.161Z,26.49
2022-09-07T14:27:42.589Z,26.25
2022-09-07T14:30:39.822Z,26.68
2022-09-07T14:33:37.502Z,26.76
2022-09-07T14:36:45.411Z,26.97
2022-09-07T14:39:48.541Z,26.29
2022-09-07T14:42:45.435Z,26.29
2022-09-07T14:45:42.349Z,25.79
2022-09-07T14:48:40.374Z,25.79
2022-09-07T14:51:42.560Z,25.78
2022-09-07T14:54:40.140Z,25.63
2022-09-07T14:57:37.023Z,26.30
2022-09-07T15:00:34.530Z,26.33
2022-09-07T15:03:35.438Z,26.57
2022-09-07T15:07:01.831Z,26.38
2022-09-07T15:10:23.250Z,26.36
2022-09-07T15:13:34.114Z,26.45
2022-09-07T15:16:36.396Z,26.49
2022-09-07T15:19:34.829Z,26.15
2022-09-07T15:22:31.698Z,25.89
2022-09-07T15:25:29.032Z,25.78
2022-09-07T15:32:01.174Z,25.41
2022-09-07T15:35:00.530Z,25.77
2022-09-07T15:38:01.423Z,25.45
2022-09-07T15:41:22.056Z,25.43
2022-09-07T15:44:17.904Z,25.34
2022-09-07T15:50:33.647Z,25.64
2022-09-07T16:00:07.534Z,25.47
2022-09-07T16:03:05.823Z,25.21
2022-09-07T16:06:14.074Z,25.04
2022-09-07T16:09:10.927Z,25.37
2022-09-07T16:15:27.089Z,25.32
2022-09-07T16:18:24.001Z,25.33
2022-09-07T16:21:26.232Z,25.29
2022-09-07T16:24:23.377Z,25.52
2022-09-07T16:27:21.297Z,25.33
2022-09-07T16:30:18.230Z,25.13
2022-09-07T16:33:15.336Z,25.11
2022-09-07T16:36:15.983Z,24.85
2022-09-07T16:39:12.966Z,24.79
2022-09-07T16:42:09.823Z,24.80
2022-09-07T16:48:23.980Z,24.52
2022-09-07T16:51:22.758Z,24.30
2022-09-07T16:54:21.121Z,24.27
2022-09-07T16:57:18.345Z,24.32
2022-09-07T17:00:16.500Z,24.09
2022-09-07T17:03:13.338Z,23.96
2022-09-07T17:06:13.039Z,23.76
2022-09-07T17:09:12.824Z,23.44
2022-09-07T17:12:12.400Z,23.08
2022-09-07T17:15:10.021Z,22.95
2022-09-07T17:18:06.830Z,22.91
2022-09-07T17:21:04.050Z,22.64
2022-09-07T17:24:04.263Z,22.54
2022-09-07T17:27:01.403Z,22.56
2022-09-07T17:29:58.273Z,22.28
2022-09-07T17:32:55.143Z,22.14
2022-09-07T17:35:52.826Z,21.99
2022-09-07T17:42:07.553Z,22.18
2022-09-07T17:45:05.672Z,21.69
2022-09-07T17:48:02.761Z,21.76
2022-09-07T17:51:07.138Z,21.66
2022-09-07T17:54:10.729Z,21.42
2022-09-07T17:57:08.127Z,21.26
2022-09-07T18:00:11.329Z,21.08
2022-09-07T18:03:08.749Z,20.96
2022-09-07T18:06:06.487Z,20.91
2022-09-07T18:09:05.309Z,20.92
2022-09-07T18:12:02.455Z,20.76
2022-09-07T18:14:59.256Z,20.78
2022-09-07T18:17:58.429Z,20.45
2022-09-07T18:20:55.274Z,20.59
2022-09-07T18:23:57.200Z,20.42
2022-09-07T18:26:54.212Z,20.33
2022-09-07T18:29:51.024Z,20.30
2022-09-07T18:32:47.875Z,20.22
2022-09-07T18:35:46.908Z,20.12
2022-09-07T18:38:43.714Z,20.04
2022-09-07T18:41:40.863Z,20.00
2022-09-07T18:47:55.033Z,19.69
2022-09-07T18:50:55.418Z,19.66
2022-09-07T18:53:52.209Z,19.62
2022-09-07T18:56:49.016Z,19.55
2022-09-07T18:59:46.122Z,19.50
2022-09-07T19:02:43.041Z,19.58
2022-09-07T19:05:55.429Z,19.58
2022-09-07T19:08:53.873Z,19.42
2022-09-07T19:11:50.684Z,19.19
2022-09-07T19:14:47.504Z,19.04
2022-09-07T19:17:44.384Z,19.07
2022-09-07T19:20:41.210Z,19.15
2022-09-07T19:23:40.889Z,18.98
2022-09-07T19:26:42.127Z,18.71
2022-09-07T19:29:38.936Z,18.74
2022-09-07T19:32:35.809Z,18.80
2022-09-07T19:35:36.115Z,18.85
2022-09-07T19:38:33.403Z,18.88
2022-09-07T19:41:30.678Z,18.62
2022-09-07T19:44:27.927Z,18.40
2022-09-07T19:47:24.865Z,18.47
2022-09-07T19:50:22.174Z,18.43
2022-09-07T19:53:19.328Z,18.39
2022-09-07T19:56:21.897Z,18.37
2022-09-07T19:59:19.715Z,18.48
2022-09-07T20:02:16.594Z,18.31
2022-09-07T20:05:14.647Z,18.15
2022-09-07T20:08:12.652Z,18.31
2022-09-07T20:11:13.343Z,18.37
2022-09-07T20:14:10.530Z,18.42
2022-09-07T20:17:10.576Z,18.23
2022-09-07T20:20:08.308Z,18.55
2022-09-07T20:23:05.084Z,18.28
2022-09-07T20:26:05.667Z,18.33
2022-09-07T20:29:25.732Z,18.40
2022-09-07T20:32:19.193Z,18.45
2022-09-07T20:35:16.086Z,18.44
2022-09-07T20:38:14.925Z,18.49
2022-09-07T20:41:22.581Z,18.43
2022-09-07T20:44:19.546Z,18.56
2022-09-07T20:47:16.349Z,18.62
2022-09-07T20:50:13.213Z,18.44
2022-09-07T20:53:10.011Z,18.37
2022-09-07T20:56:25.522Z,18.24
2022-09-07T20:59:22.399Z,18.16
2022-09-07T21:02:19.358Z,18.42
2022-09-07T21:05:16.331Z,18.31
2022-09-07T21:08:13.825Z,18.21
2022-09-07T21:11:20.752Z,18.28
2022-09-07T21:14:19.217Z,18.09
2022-09-07T21:17:16.022Z,18.25
2022-09-07T21:20:12.838Z,18.10
2022-09-07T21:23:10.450Z,18.10
2022-09-07T21:26:07.318Z,18.18
2022-09-07T21:29:05.693Z,17.91
2022-09-07T21:32:03.227Z,18.12
2022-09-07T21:35:00.038Z,18.14
2022-09-07T21:37:56.924Z,17.84
2022-09-07T21:40:53.728Z,17.61
2022-09-07T21:43:58.698Z,17.76
2022-09-07T21:46:55.669Z,17.61
2022-09-07T21:49:52.557Z,17.78
2022-09-07T21:52:49.356Z,17.65
2022-09-07T21:56:02.145Z,17.44
2022-09-07T21:59:01.911Z,17.32
2022-09-07T22:01:58.926Z,17.54
2022-09-07T22:04:55.789Z,17.48
2022-09-07T22:07:52.575Z,17.55
2022-09-07T22:10:49.384Z,17.51
2022-09-07T22:13:46.557Z,17.51
2022-09-07T22:16:43.556Z,17.30
2022-09-07T22:19:41.293Z,17.26
2022-09-07T22:22:38.234Z,17.13
2022-09-07T22:25:35.077Z,17.09
2022-09-07T22:28:32.684Z,17.15
2022-09-07T22:31:32.919Z,17.14
2022-09-07T22:34:29.817Z,17.02
2022-09-07T22:37:26.726Z,16.94
2022-09-07T22:40:23.535Z,16.85
2022-09-07T22:43:20.645Z,16.90
2022-09-07T22:46:20.120Z,16.97
2022-09-07T22:49:17.737Z,16.99
2022-09-07T22:52:14.529Z,16.81
2022-09-07T22:55:12.369Z,16.76
2022-09-07T22:58:09.205Z,16.89
2022-09-07T23:01:06.833Z,16.72
2022-09-07T23:04:05.084Z,16.72
2022-09-07T23:07:01.949Z,16.59
2022-09-07T23:09:58.785Z,16.70
2022-09-07T23:12:55.651Z,16.51
2022-09-07T23:15:52.500Z,16.63
2022-09-07T23:18:49.563Z,16.55
2022-09-07T23:21:46.741Z,16.46
2022-09-07T23:24:43.541Z,16.51
2022-09-07T23:27:40.701Z,16.43
2022-09-07T23:30:40.021Z,16.52
2022-09-07T23:33:37.203Z,16.50
2022-09-07T23:36:34.403Z,16.56
2022-09-07T23:39:31.262Z,16.54
2022-09-07T23:42:28.127Z,16.43
2022-09-07T23:45:25.217Z,16.35
2022-09-07T23:48:23.188Z,16.45
2022-09-07T23:51:23.781Z,16.08
2022-09-07T23:54:20.910Z,16.37
2022-09-07T23:57:17.754Z,16.50
